Etusivu
METAR-TAF:

METAR-TAF

Lentoasemat :

Rio Branco, Acre, Brasilia

Leveyspiiri: 10-00S, Pituuspiiri: 067-48W, korkeus merenpinnasta: 142 m

Tämänhetkinen sää

Tämä raportti tehtiin 22 minuuttia sitten, kello 13.00 UTC
Tuuli 4 kn luoteesta
Lämpötila 27°C
Kosteus 84%
Ilmanpaine 1013 hPa
Näkyvyys 10 km tai enemmän
ei pilviä alle 1500 m:ssä eikä cumulonimbus-pilviä

METAR: SBRB 221300Z 31004KT CAVOK 27/24 Q1013

Aika: 08:22 (13:22 UTC)

Sääennuste

Tämä raportti tehtiin 5 tuntia ja 25 minuuttia sitten, kello 07.57 UTC
Ennuste voimassa 22. päivästä klo 12 UTC - 22. päivään klo 24 UTC
Tuuli 3 kn lännestä
Näkyvyys 10 km tai enemmän
ei pilviä alle 1500 m:ssä eikä cumulonimbus-pilviä
Tulossa
22. päivästä klo 13 UTC - 22. päivään klo 15 UTC
Tuuli 5 kn pohjoisesta
Muutamia pilviä 4000 ft:n korkeudessa, Kasvava cumulus-pilvi.

TAF: SBRB 220757Z 2212/2224 26003KT CAVOK TX33/2218Z TN26/2224Z BECMG 2213/2215 35005KT FEW040TCU RMK PGU

Säähavainnot ja -ennusteet yli 4000 lentoasemalta (METAR- ja TAF-raportit).

Käytössä olevat sääasemat on merkitty karttaan keltaisilla ja punaisilla pisteillä.

Aseta hiiri pisteen päälle nähdäksesi sääaseman nimen.

Klikkaa sitten nähdäksesi säähavainnot ja -ennusteet.

Kartan vaihtaminen: klikkaa mustalla rastilla varustettuja vihreitä pisteitä, niin voit zoomata sisään; viivalla varustettua vihreää pistettä, niin voit zoomata ulos tai vihreitä nuolia, niin pääset viereisille kartoille.


METAR-TAF: